createdAt,value
2019-05-07T00:00:08.270Z,1007.99
2019-05-07T00:01:08.272Z,1007.96
2019-05-07T00:02:08.276Z,1007.96
2019-05-07T00:03:08.266Z,1007.99
2019-05-07T00:04:08.254Z,1007.95
2019-05-07T00:05:08.259Z,1007.97
2019-05-07T00:06:08.232Z,1007.96
2019-05-07T00:07:08.214Z,1007.93
2019-05-07T00:08:08.210Z,1007.97
2019-05-07T00:09:08.225Z,1007.97
2019-05-07T00:10:08.224Z,1007.96
2019-05-07T00:11:08.180Z,1007.94
2019-05-07T00:12:08.177Z,1007.97
2019-05-07T00:13:08.193Z,1007.91
2019-05-07T00:14:08.159Z,1007.91
2019-05-07T00:15:08.165Z,1007.90
2019-05-07T00:16:08.156Z,1007.90
2019-05-07T00:17:08.134Z,1007.88
2019-05-07T00:18:08.182Z,1007.87
2019-05-07T00:19:08.148Z,1007.87
2019-05-07T00:20:08.125Z,1007.83
2019-05-07T00:21:08.098Z,1007.83
2019-05-07T00:22:08.115Z,1007.80
2019-05-07T00:23:08.094Z,1007.80
2019-05-07T00:24:08.080Z,1007.79
2019-05-07T00:25:08.062Z,1007.75
2019-05-07T00:26:08.057Z,1007.76
2019-05-07T00:27:08.042Z,1007.76
2019-05-07T00:28:08.043Z,1007.73
2019-05-07T00:29:08.121Z,1007.71
2019-05-07T00:30:08.056Z,1007.69
2019-05-07T00:31:08.045Z,1007.67
2019-05-07T00:32:08.051Z,1007.66
2019-05-07T00:33:07.998Z,1007.66
2019-05-07T00:34:08.020Z,1007.67
2019-05-07T00:35:08.027Z,1007.63
2019-05-07T00:36:07.992Z,1007.69
2019-05-07T00:37:07.960Z,1007.68
2019-05-07T00:38:08.106Z,1007.64
2019-05-07T00:39:17.294Z,1007.68
2019-05-07T00:41:12.891Z,1007.64
2019-05-07T00:42:12.761Z,1007.66
2019-05-07T00:43:12.574Z,1007.62
2019-05-07T00:44:13.579Z,1007.67
2019-05-07T00:45:20.089Z,1007.65
2019-05-07T00:46:13.062Z,1007.66
2019-05-07T00:47:12.756Z,1007.65
2019-05-07T00:48:12.727Z,1007.62
2019-05-07T00:49:12.741Z,1007.62
2019-05-07T00:50:12.954Z,1007.57
2019-05-07T00:51:12.877Z,1007.58
2019-05-07T00:52:14.114Z,1007.61
2019-05-07T00:53:13.103Z,1007.61
2019-05-07T00:54:12.409Z,1007.58
2019-05-07T00:55:12.569Z,1007.57
2019-05-07T00:56:22.307Z,1007.56
2019-05-07T00:58:17.164Z,1007.56
2019-05-07T00:59:17.199Z,1007.52
2019-05-07T01:00:17.045Z,1007.57
2019-05-07T01:01:17.024Z,1007.57
2019-05-07T01:02:16.851Z,1007.55
2019-05-07T01:03:16.746Z,1007.55
2019-05-07T01:04:17.109Z,1007.54
2019-05-07T01:05:26.217Z,1007.54
2019-05-07T01:07:22.918Z,1007.50
2019-05-07T01:08:22.621Z,1007.52
2019-05-07T01:09:22.880Z,1007.50
2019-05-07T01:10:22.252Z,1007.45
2019-05-07T01:11:22.643Z,1007.47
2019-05-07T01:12:22.261Z,1007.48
2019-05-07T01:13:23.150Z,1007.47
2019-05-07T01:14:22.792Z,1007.46
2019-05-07T01:15:28.737Z,1007.49
2019-05-07T01:16:22.241Z,1007.45
2019-05-07T01:17:22.716Z,1007.45
2019-05-07T01:18:23.168Z,1007.44
2019-05-07T01:19:21.931Z,1007.45
2019-05-07T01:20:22.138Z,1007.47
2019-05-07T01:21:22.731Z,1007.42
2019-05-07T01:22:22.180Z,1007.40
2019-05-07T01:23:22.834Z,1007.41
2019-05-07T01:24:23.084Z,1007.40
2019-05-07T01:25:22.104Z,1007.35
2019-05-07T01:26:30.069Z,1007.33
2019-05-07T01:28:36.359Z,1007.34
2019-05-07T01:29:35.398Z,1007.35
2019-05-07T01:31:32.810Z,1007.29
2019-05-07T01:32:32.804Z,1007.31
2019-05-07T01:33:39.799Z,1007.32
2019-05-07T01:35:35.586Z,1007.30
2019-05-07T01:36:35.439Z,1007.35
2019-05-07T01:37:35.232Z,1007.30
2019-05-07T01:38:35.556Z,1007.31
2019-05-07T01:39:35.521Z,1007.33
2019-05-07T01:40:44.330Z,1007.32
2019-05-07T01:42:42.170Z,1007.30
2019-05-07T01:43:39.622Z,1007.32
2019-05-07T01:44:41.885Z,1007.27
2019-05-07T01:45:46.394Z,1007.30
2019-05-07T01:46:42.091Z,1007.31
2019-05-07T01:47:39.905Z,1007.25
2019-05-07T01:48:39.584Z,1007.33
2019-05-07T01:49:41.965Z,1007.28
2019-05-07T01:50:39.548Z,1007.31
2019-05-07T01:51:42.096Z,1007.25
2019-05-07T01:52:39.515Z,1007.26
2019-05-07T01:53:39.532Z,1007.29
2019-05-07T01:54:39.527Z,1007.31
2019-05-07T01:55:39.494Z,1007.28
2019-05-07T01:56:48.461Z,1007.33
2019-05-07T01:58:53.286Z,1007.33
2019-05-07T01:59:43.962Z,1007.32
2019-05-07T02:00:53.292Z,1007.33
2019-05-07T02:02:57.925Z,1007.26
2019-05-07T02:03:48.442Z,1007.30
2019-05-07T02:04:48.471Z,1007.29
2019-05-07T02:05:49.176Z,1007.33
2019-05-07T02:06:48.370Z,1007.31
2019-05-07T02:07:57.443Z,1007.29
2019-05-07T02:09:51.915Z,1007.25
2019-05-07T02:10:42.830Z,1007.26
2019-05-07T02:11:42.232Z,1007.22
2019-05-07T02:12:42.562Z,1007.23
2019-05-07T02:13:42.074Z,1007.20
2019-05-07T02:14:42.278Z,1007.20
2019-05-07T02:15:42.807Z,1007.22
2019-05-07T02:16:41.964Z,1007.17
2019-05-07T02:17:42.975Z,1007.15
2019-05-07T02:18:42.402Z,1007.17
2019-05-07T02:19:42.501Z,1007.14
2019-05-07T02:20:42.659Z,1007.16
2019-05-07T02:21:42.360Z,1007.13
2019-05-07T02:22:42.728Z,1007.14
2019-05-07T02:23:42.618Z,1007.14
2019-05-07T02:24:43.385Z,1007.13
2019-05-07T02:25:41.970Z,1007.15
2019-05-07T02:26:52.055Z,1007.14
2019-05-07T02:28:55.676Z,1007.14
2019-05-07T02:29:46.078Z,1007.12
2019-05-07T02:30:46.089Z,1007.14
2019-05-07T02:31:46.082Z,1007.16
2019-05-07T02:32:54.949Z,1007.16
2019-05-07T02:36:29.678Z,1007.17
2019-05-07T02:37:48.555Z,1007.16
2019-05-07T02:39:44.258Z,1007.12
2019-05-07T02:40:43.424Z,1007.18
2019-05-07T02:42:38.922Z,1007.12
2019-05-07T02:43:38.564Z,1007.15
2019-05-07T02:44:38.588Z,1007.16
2019-05-07T02:45:38.593Z,1007.17
2019-05-07T02:46:38.876Z,1007.19
2019-05-07T02:47:38.609Z,1007.19
2019-05-07T02:48:38.503Z,1007.24
2019-05-07T02:49:38.531Z,1007.23
2019-05-07T02:50:38.524Z,1007.22
2019-05-07T02:51:38.469Z,1007.22
2019-05-07T02:52:38.476Z,1007.22
2019-05-07T02:53:38.445Z,1007.22
2019-05-07T02:54:38.433Z,1007.20
2019-05-07T02:55:38.461Z,1007.21
2019-05-07T02:56:47.405Z,1007.19
2019-05-07T02:58:43.548Z,1007.15
2019-05-07T02:59:44.045Z,1007.21
2019-05-07T03:00:43.529Z,1007.29
2019-05-07T03:03:55.727Z,1007.26
2019-05-07T03:04:47.461Z,1007.26
2019-05-07T03:05:47.357Z,1007.29
2019-05-07T03:06:47.611Z,1007.29
2019-05-07T03:07:47.286Z,1007.30
2019-05-07T03:08:47.301Z,1007.29
2019-05-07T03:09:47.282Z,1007.32
2019-05-07T03:10:56.342Z,1007.31
2019-05-07T03:12:53.558Z,1007.31
2019-05-07T03:13:53.767Z,1007.32
2019-05-07T03:14:53.649Z,1007.32
2019-05-07T03:15:53.951Z,1007.35
2019-05-07T03:16:53.687Z,1007.36
2019-05-07T03:17:53.841Z,1007.37
2019-05-07T03:18:53.263Z,1007.35
2019-05-07T03:19:53.410Z,1007.39
2019-05-07T03:20:53.553Z,1007.39
2019-05-07T03:21:54.016Z,1007.36
2019-05-07T03:22:53.895Z,1007.35
2019-05-07T03:23:53.840Z,1007.37
2019-05-07T03:24:52.980Z,1007.32
2019-05-07T03:25:54.131Z,1007.33
2019-05-07T03:26:53.519Z,1007.33
2019-05-07T03:27:53.613Z,1007.36
2019-05-07T03:28:53.651Z,1007.31
2019-05-07T03:33:26.350Z,1007.36
2019-05-07T03:34:16.291Z,1007.38
2019-05-07T03:35:16.220Z,1007.36
2019-05-07T03:36:16.901Z,1007.34
2019-05-07T03:37:14.398Z,1007.33
2019-05-07T03:38:14.334Z,1007.35
2019-05-07T03:39:14.811Z,1007.34
2019-05-07T03:40:14.480Z,1007.37
2019-05-07T03:41:14.333Z,1007.38
2019-05-07T03:42:14.326Z,1007.41
2019-05-07T03:43:14.490Z,1007.38
2019-05-07T03:44:14.264Z,1007.39
2019-05-07T03:45:14.267Z,1007.40
2019-05-07T03:46:14.431Z,1007.41
2019-05-07T03:47:14.222Z,1007.44
2019-05-07T03:48:14.211Z,1007.42
2019-05-07T03:49:14.186Z,1007.39
2019-05-07T03:50:14.915Z,1007.40
2019-05-07T03:51:14.206Z,1007.38
2019-05-07T03:52:14.159Z,1007.41
2019-05-07T03:53:14.488Z,1007.41
2019-05-07T03:54:14.540Z,1007.41
2019-05-07T03:55:14.803Z,1007.42
2019-05-07T03:56:23.632Z,1007.42
2019-05-07T03:58:29.338Z,1007.40
2019-05-07T03:59:18.859Z,1007.41
2019-05-07T04:00:18.688Z,1007.35
2019-05-07T04:01:18.627Z,1007.38
2019-05-07T04:02:18.622Z,1007.38
2019-05-07T04:03:19.805Z,1007.39
2019-05-07T04:04:18.584Z,1007.40
2019-05-07T04:05:18.546Z,1007.41
2019-05-07T04:06:18.551Z,1007.43
2019-05-07T04:24:03.335Z,1007.43
2019-05-07T04:24:59.792Z,1007.45
2019-05-07T04:26:00.063Z,1007.41
2019-05-07T04:27:12.851Z,1007.46
2019-05-07T04:29:06.171Z,1007.44
2019-05-07T04:30:13.259Z,1007.41
2019-05-07T04:32:08.919Z,1007.37
2019-05-07T04:33:18.435Z,1007.39
2019-05-07T04:35:14.348Z,1007.41
2019-05-07T04:36:14.984Z,1007.43
2019-05-07T04:37:14.857Z,1007.42
2019-05-07T04:42:26.652Z,1007.34
2019-05-07T04:43:24.761Z,1007.38
2019-05-07T04:44:25.389Z,1007.40
2019-05-07T04:45:24.687Z,1007.39
2019-05-07T04:46:24.188Z,1007.41
2019-05-07T04:47:38.010Z,1007.41
2019-05-07T04:48:24.464Z,1007.44
2019-05-07T04:49:24.219Z,1007.43
2019-05-07T04:50:38.026Z,1007.44
2019-05-07T04:51:24.080Z,1007.47
2019-05-07T04:52:24.155Z,1007.48
2019-05-07T04:53:24.069Z,1007.47
2019-05-07T04:54:24.071Z,1007.48
2019-05-07T04:55:24.078Z,1007.48
2019-05-07T04:56:33.834Z,1007.47
2019-05-07T04:58:28.799Z,1007.51
2019-05-07T04:59:28.506Z,1007.52
2019-05-07T05:00:37.398Z,1007.52
2019-05-07T05:02:34.450Z,1007.48
2019-05-07T05:03:43.730Z,1007.53
2019-05-07T05:05:47.259Z,1007.55
2019-05-07T05:06:46.754Z,1007.49
2019-05-07T05:08:55.157Z,1007.49
2019-05-07T05:09:53.038Z,1007.46
2019-05-07T05:11:46.692Z,1007.46
2019-05-07T05:12:46.607Z,1007.47
2019-05-07T05:13:46.674Z,1007.44
2019-05-07T05:14:46.950Z,1007.42
2019-05-07T05:15:56.073Z,1007.41
2019-05-07T05:17:53.827Z,1007.40
2019-05-07T05:18:51.720Z,1007.42
2019-05-07T05:19:52.508Z,1007.39
2019-05-07T05:20:51.902Z,1007.40
2019-05-07T05:21:52.716Z,1007.41
2019-05-07T05:22:53.069Z,1007.42
2019-05-07T05:23:52.321Z,1007.41
2019-05-07T05:24:52.316Z,1007.45
2019-05-07T05:25:52.275Z,1007.47
2019-05-07T05:26:52.549Z,1007.51
2019-05-07T05:29:25.712Z,1007.50
2019-05-07T05:30:26.601Z,1007.53
2019-05-07T05:31:25.829Z,1007.56
2019-05-07T05:32:26.553Z,1007.61
2019-05-07T05:33:34.443Z,1007.71
2019-05-07T05:35:42.876Z,1007.97
2019-05-07T05:36:39.341Z,1008.17
2019-05-07T05:38:46.686Z,1008.33
2019-05-07T05:39:35.951Z,1008.42
2019-05-07T05:40:35.623Z,1008.46
2019-05-07T05:41:37.924Z,1008.33
2019-05-07T05:42:35.633Z,1008.08
2019-05-07T05:43:35.622Z,1007.92
2019-05-07T05:44:35.631Z,1007.91
2019-05-07T05:45:35.585Z,1007.87
2019-05-07T05:46:35.576Z,1007.79
2019-05-07T05:47:35.548Z,1007.94
2019-05-07T05:48:35.608Z,1007.97
2019-05-07T05:49:36.820Z,1007.83
2019-05-07T05:50:35.610Z,1008.24
2019-05-07T05:51:35.695Z,1008.20
2019-05-07T05:52:35.612Z,1008.00
2019-05-07T05:53:35.532Z,1007.88
2019-05-07T05:54:35.576Z,1007.78
2019-05-07T05:55:35.580Z,1007.74
2019-05-07T05:56:35.534Z,1007.74
2019-05-07T05:57:35.529Z,1007.74
2019-05-07T05:58:35.539Z,1007.72
2019-05-07T05:59:47.936Z,1007.75
2019-05-07T06:00:35.583Z,1007.74
2019-05-07T06:01:35.555Z,1007.74
2019-05-07T06:02:35.564Z,1007.67
2019-05-07T06:03:35.779Z,1007.68
2019-05-07T06:04:35.553Z,1007.62
2019-05-07T06:05:35.550Z,1007.63
2019-05-07T06:06:35.560Z,1007.61
2019-05-07T06:07:35.541Z,1007.60
2019-05-07T06:08:35.576Z,1007.58
2019-05-07T06:09:35.522Z,1007.58
2019-05-07T06:10:35.514Z,1007.56
2019-05-07T06:11:35.540Z,1007.57
2019-05-07T06:12:35.514Z,1007.56
2019-05-07T06:13:35.513Z,1007.53
2019-05-07T06:14:35.539Z,1007.58
2019-05-07T06:15:35.505Z,1007.57
2019-05-07T06:16:36.684Z,1007.57
2019-05-07T06:17:35.493Z,1007.58
2019-05-07T06:18:35.484Z,1007.58
2019-05-07T06:19:35.511Z,1007.53
2019-05-07T06:20:35.473Z,1007.55
2019-05-07T06:21:35.564Z,1007.59
2019-05-07T06:22:35.487Z,1007.61
2019-05-07T06:23:35.509Z,1007.65
2019-05-07T06:24:35.550Z,1007.66
2019-05-07T06:25:35.490Z,1007.67
2019-05-07T06:26:35.503Z,1007.64
2019-05-07T06:27:35.531Z,1007.65
2019-05-07T06:28:35.472Z,1007.65
2019-05-07T06:29:35.431Z,1007.67
2019-05-07T06:30:35.445Z,1007.67
2019-05-07T06:31:35.458Z,1007.68
2019-05-07T06:32:35.428Z,1007.72
2019-05-07T06:35:19.410Z,1007.67
2019-05-07T06:37:42.710Z,1007.70
2019-05-07T06:38:48.886Z,1007.66
2019-05-07T06:40:53.579Z,1007.71
2019-05-07T06:41:44.575Z,1007.67
2019-05-07T06:42:44.467Z,1007.68
2019-05-07T06:43:44.459Z,1007.69
2019-05-07T06:44:44.490Z,1007.65
2019-05-07T06:45:44.339Z,1007.68
2019-05-07T06:46:44.372Z,1007.67
2019-05-07T06:47:53.404Z,1007.70
2019-05-07T06:49:49.234Z,1007.66
2019-05-07T06:50:48.996Z,1007.63
2019-05-07T06:51:48.914Z,1007.66
2019-05-07T06:52:49.279Z,1007.63
2019-05-07T06:53:48.856Z,1007.63
2019-05-07T06:54:48.815Z,1007.62
2019-05-07T06:55:48.839Z,1007.62
2019-05-07T06:56:49.022Z,1007.62
2019-05-07T06:57:48.766Z,1007.62
2019-05-07T06:58:48.765Z,1007.58
2019-05-07T06:59:48.753Z,1007.54
2019-05-07T07:00:48.818Z,1007.55
2019-05-07T07:01:48.814Z,1007.54
2019-05-07T07:02:48.783Z,1007.51
2019-05-07T07:03:48.799Z,1007.53
2019-05-07T07:04:49.236Z,1007.54
2019-05-07T07:07:41.988Z,1007.52
2019-05-07T07:08:37.567Z,1007.53
2019-05-07T07:10:32.429Z,1007.53
2019-05-07T07:11:22.692Z,1007.51
2019-05-07T07:12:25.863Z,1007.51
2019-05-07T07:13:22.949Z,1007.50
2019-05-07T07:14:22.760Z,1007.47
2019-05-07T07:15:23.201Z,1007.49
2019-05-07T07:16:22.611Z,1007.48
2019-05-07T07:17:22.409Z,1007.54
2019-05-07T07:18:23.095Z,1007.46
2019-05-07T07:19:23.251Z,1007.49
2019-05-07T07:20:32.645Z,1007.47
2019-05-07T07:22:26.935Z,1007.46
2019-05-07T07:23:35.891Z,1007.45
2019-05-07T07:25:39.200Z,1007.46
2019-05-07T07:26:32.810Z,1007.42
2019-05-07T07:27:32.208Z,1007.40
2019-05-07T07:28:32.692Z,1007.41
2019-05-07T07:29:32.421Z,1007.37
2019-05-07T07:30:32.603Z,1007.34
2019-05-07T07:31:42.455Z,1007.38
2019-05-07T07:33:35.808Z,1007.38
2019-05-07T07:34:35.714Z,1007.34
2019-05-07T07:35:35.807Z,1007.43
2019-05-07T07:36:35.821Z,1007.39
2019-05-07T07:37:35.542Z,1007.36
2019-05-07T07:38:35.575Z,1007.41
2019-05-07T07:39:35.517Z,1007.36
2019-05-07T07:40:35.501Z,1007.37
2019-05-07T07:41:35.589Z,1007.38
2019-05-07T07:42:35.509Z,1007.37
2019-05-07T07:43:35.539Z,1007.36
2019-05-07T07:44:35.524Z,1007.34
2019-05-07T07:45:35.468Z,1007.27
2019-05-07T07:46:35.549Z,1007.27
2019-05-07T07:47:35.484Z,1007.29
2019-05-07T07:48:35.475Z,1007.27
2019-05-07T07:49:35.522Z,1007.25
2019-05-07T07:50:35.470Z,1007.25
2019-05-07T07:51:41.465Z,1007.24
2019-05-07T07:52:35.431Z,1007.25
2019-05-07T07:53:35.657Z,1007.23
2019-05-07T07:54:35.469Z,1007.24
2019-05-07T07:55:35.417Z,1007.23
2019-05-07T07:56:49.046Z,1007.23
2019-05-07T07:57:35.435Z,1007.23
2019-05-07T07:58:35.450Z,1007.21
2019-05-07T07:59:35.417Z,1007.17
2019-05-07T08:00:35.389Z,1007.15
2019-05-07T08:01:35.384Z,1007.16
2019-05-07T08:02:35.377Z,1007.13
2019-05-07T08:03:35.414Z,1007.15
2019-05-07T08:04:37.109Z,1007.11
2019-05-07T08:05:35.429Z,1007.06
2019-05-07T08:06:36.044Z,1007.02
2019-05-07T08:07:35.444Z,1007.05
2019-05-07T08:08:35.388Z,1006.99
2019-05-07T08:09:35.392Z,1007.00
2019-05-07T08:10:35.355Z,1007.00
2019-05-07T08:11:35.350Z,1007.04
2019-05-07T08:12:35.557Z,1007.06
2019-05-07T08:13:35.370Z,1007.03
2019-05-07T08:14:35.366Z,1007.02
2019-05-07T08:15:35.351Z,1007.01
2019-05-07T08:16:35.319Z,1007.00
2019-05-07T08:17:35.310Z,1007.01
2019-05-07T08:18:35.331Z,1006.97
2019-05-07T08:19:35.368Z,1006.99
2019-05-07T08:20:35.294Z,1006.95
2019-05-07T08:21:35.304Z,1006.97
2019-05-07T08:22:35.296Z,1006.95
2019-05-07T08:23:35.303Z,1006.96
2019-05-07T08:24:35.324Z,1006.93
2019-05-07T08:25:35.322Z,1006.89
2019-05-07T08:26:35.253Z,1006.87
2019-05-07T08:27:35.286Z,1006.89
2019-05-07T08:28:35.244Z,1006.87
2019-05-07T08:29:35.234Z,1006.88
2019-05-07T08:30:35.342Z,1006.87
2019-05-07T08:31:35.268Z,1006.89
2019-05-07T08:32:35.278Z,1006.83
2019-05-07T08:33:35.271Z,1006.86
2019-05-07T08:34:35.275Z,1006.88
2019-05-07T08:35:35.232Z,1006.84
2019-05-07T08:36:35.264Z,1006.82
2019-05-07T08:37:35.205Z,1006.80
2019-05-07T08:38:35.193Z,1006.79
2019-05-07T08:39:35.219Z,1006.76
2019-05-07T08:40:35.222Z,1006.75
2019-05-07T08:41:35.220Z,1006.72
2019-05-07T08:42:35.221Z,1006.72
2019-05-07T08:43:35.237Z,1006.75
2019-05-07T08:44:35.223Z,1006.72
2019-05-07T08:45:35.276Z,1006.66
2019-05-07T08:46:35.198Z,1006.67
2019-05-07T08:47:35.186Z,1006.67
2019-05-07T08:48:35.193Z,1006.64
2019-05-07T08:49:39.598Z,1006.66
2019-05-07T08:50:35.191Z,1006.66
2019-05-07T08:51:35.289Z,1006.65
2019-05-07T08:52:35.128Z,1006.67
2019-05-07T08:53:35.189Z,1006.67
2019-05-07T08:54:35.158Z,1006.67
2019-05-07T08:55:35.124Z,1006.66
2019-05-07T08:56:35.109Z,1006.68
2019-05-07T08:57:35.118Z,1006.65
2019-05-07T08:58:35.115Z,1006.64
2019-05-07T08:59:35.110Z,1006.60
2019-05-07T09:00:35.112Z,1006.63
2019-05-07T09:01:35.097Z,1006.62
2019-05-07T09:02:35.141Z,1006.64
2019-05-07T09:03:35.140Z,1006.64
2019-05-07T09:04:35.413Z,1006.69
2019-05-07T09:05:35.129Z,1006.64
2019-05-07T09:06:35.097Z,1006.61
2019-05-07T09:07:35.084Z,1006.61
2019-05-07T09:08:35.094Z,1006.62
2019-05-07T09:09:35.097Z,1006.60
2019-05-07T09:10:35.102Z,1006.58
2019-05-07T09:11:35.060Z,1006.56
2019-05-07T09:12:35.042Z,1006.54
2019-05-07T09:13:35.037Z,1006.55
2019-05-07T09:14:35.031Z,1006.55
2019-05-07T09:15:35.042Z,1006.57
2019-05-07T09:16:35.069Z,1006.55
2019-05-07T09:17:35.045Z,1006.54
2019-05-07T09:18:35.060Z,1006.53
2019-05-07T09:19:47.153Z,1006.49
2019-05-07T09:20:35.020Z,1006.45
2019-05-07T09:21:35.021Z,1006.43
2019-05-07T09:22:35.033Z,1006.44
2019-05-07T09:23:35.031Z,1006.40
2019-05-07T09:24:35.035Z,1006.41
2019-05-07T09:25:35.004Z,1006.41
2019-05-07T09:26:35.004Z,1006.40
2019-05-07T09:27:34.977Z,1006.39
2019-05-07T09:28:34.976Z,1006.42
2019-05-07T09:29:34.986Z,1006.42
2019-05-07T09:30:34.969Z,1006.43
2019-05-07T09:31:43.891Z,1006.45
2019-05-07T09:33:49.765Z,1006.39
2019-05-07T09:34:48.236Z,1006.37
2019-05-07T09:36:44.709Z,1006.43
2019-05-07T09:37:43.978Z,1006.38
2019-05-07T09:38:56.153Z,1006.40
2019-05-07T09:39:44.209Z,1006.37
2019-05-07T09:40:52.927Z,1006.33
2019-05-07T09:42:48.689Z,1006.28
2019-05-07T09:43:48.456Z,1006.30
2019-05-07T09:44:48.690Z,1006.32
2019-05-07T09:45:48.434Z,1006.26
2019-05-07T09:46:48.440Z,1006.24
2019-05-07T09:47:48.393Z,1006.25
2019-05-07T09:48:57.347Z,1006.28
2019-05-07T09:50:02.035Z,1006.24
2019-05-07T09:50:48.441Z,1006.22
2019-05-07T09:51:48.539Z,1006.17
2019-05-07T09:52:48.379Z,1006.19
2019-05-07T09:53:48.415Z,1006.17
2019-05-07T09:54:48.407Z,1006.20
2019-05-07T09:55:48.390Z,1006.20
2019-05-07T09:56:48.359Z,1006.17
2019-05-07T09:57:57.387Z,1006.16
2019-05-07T10:01:12.674Z,1006.19
2019-05-07T10:02:12.100Z,1006.17
2019-05-07T10:03:12.383Z,1006.17
2019-05-07T10:04:10.240Z,1006.12
2019-05-07T10:05:14.490Z,1006.14
2019-05-07T10:06:12.309Z,1006.14
2019-05-07T10:07:10.100Z,1006.17
2019-05-07T10:08:10.100Z,1006.13
2019-05-07T10:09:11.998Z,1006.15
2019-05-07T10:10:11.969Z,1006.12
2019-05-07T10:11:12.120Z,1006.16
2019-05-07T10:12:12.056Z,1006.10
2019-05-07T10:13:12.077Z,1006.13
2019-05-07T10:14:12.200Z,1006.13
2019-05-07T10:15:12.093Z,1006.11
2019-05-07T10:16:10.101Z,1006.10
2019-05-07T10:17:11.918Z,1006.13
2019-05-07T10:18:12.222Z,1006.10
2019-05-07T10:19:10.070Z,1006.09
2019-05-07T10:20:19.287Z,1006.11
2019-05-07T10:21:10.092Z,1006.07
2019-05-07T10:22:10.077Z,1006.12
2019-05-07T10:23:11.650Z,1006.05
2019-05-07T10:24:10.043Z,1006.02
2019-05-07T10:25:12.022Z,1006.02
2019-05-07T10:26:19.186Z,1005.98
2019-05-07T10:28:23.761Z,1005.95
2019-05-07T10:29:23.534Z,1005.95
2019-05-07T10:31:27.303Z,1005.91
2019-05-07T10:32:27.923Z,1005.89
2019-05-07T10:34:23.871Z,1005.84
2019-05-07T10:35:33.763Z,1005.85
2019-05-07T10:37:38.345Z,1005.86
2019-05-07T10:38:28.198Z,1005.83
2019-05-07T10:39:28.142Z,1005.86
2019-05-07T10:40:28.021Z,1005.82
2019-05-07T10:41:28.146Z,1005.82
2019-05-07T10:42:27.970Z,1005.83
2019-05-07T10:43:27.961Z,1005.77
2019-05-07T10:44:27.973Z,1005.78
2019-05-07T10:45:27.947Z,1005.78
2019-05-07T10:46:27.957Z,1005.79
2019-05-07T10:47:27.932Z,1005.76
2019-05-07T10:48:27.929Z,1005.78
2019-05-07T10:49:27.946Z,1005.75
2019-05-07T10:50:37.964Z,1005.75
2019-05-07T10:51:27.921Z,1005.76
2019-05-07T10:52:27.946Z,1005.72
2019-05-07T10:53:27.943Z,1005.73
2019-05-07T10:54:27.958Z,1005.71
2019-05-07T10:55:27.929Z,1005.70
2019-05-07T10:56:27.933Z,1005.73
2019-05-07T10:57:27.931Z,1005.69
2019-05-07T10:58:27.884Z,1005.66
2019-05-07T10:59:27.937Z,1005.69
2019-05-07T11:00:27.897Z,1005.73
2019-05-07T11:01:27.873Z,1005.67
2019-05-07T11:02:27.873Z,1005.64
2019-05-07T11:03:27.876Z,1005.63
2019-05-07T11:04:39.278Z,1005.64
2019-05-07T11:05:27.918Z,1005.61
2019-05-07T11:06:27.863Z,1005.58
2019-05-07T11:07:27.850Z,1005.56
2019-05-07T11:11:07.705Z,1005.51
2019-05-07T11:11:58.553Z,1005.51
2019-05-07T11:12:58.398Z,1005.44
2019-05-07T11:13:58.319Z,1005.44
2019-05-07T11:14:58.332Z,1005.44
2019-05-07T11:15:58.314Z,1005.42
2019-05-07T11:16:58.308Z,1005.39
2019-05-07T11:17:58.309Z,1005.39
2019-05-07T11:18:58.321Z,1005.35
2019-05-07T11:19:58.343Z,1005.37
2019-05-07T11:20:58.301Z,1005.37
2019-05-07T11:21:58.307Z,1005.35
2019-05-07T11:22:58.332Z,1005.33
2019-05-07T11:23:58.326Z,1005.33
2019-05-07T11:24:58.284Z,1005.30
2019-05-07T11:25:58.278Z,1005.26
2019-05-07T11:26:58.278Z,1005.23
2019-05-07T11:27:58.273Z,1005.14
2019-05-07T11:28:58.274Z,1005.14
2019-05-07T11:29:58.321Z,1005.20
2019-05-07T11:30:58.280Z,1005.09
2019-05-07T11:31:58.293Z,1005.10
2019-05-07T11:32:58.322Z,1005.08
2019-05-07T11:33:58.298Z,1005.09
2019-05-07T11:34:58.250Z,1005.06
2019-05-07T11:35:58.242Z,1005.06
2019-05-07T11:36:58.251Z,1005.03
2019-05-07T11:37:58.346Z,1005.03
2019-05-07T11:38:58.232Z,1005.00
2019-05-07T11:39:58.230Z,1005.02
2019-05-07T11:40:58.291Z,1005.02
2019-05-07T11:41:58.248Z,1004.99
2019-05-07T11:42:58.233Z,1005.05
2019-05-07T11:43:58.216Z,1005.01
2019-05-07T11:44:58.226Z,1005.02
2019-05-07T11:45:59.109Z,1004.95
2019-05-07T11:46:58.210Z,1004.98
2019-05-07T11:47:58.225Z,1004.97
2019-05-07T11:48:58.221Z,1004.93
2019-05-07T11:49:58.299Z,1004.91
2019-05-07T11:51:03.339Z,1004.88
2019-05-07T11:51:58.258Z,1004.87
2019-05-07T11:52:58.269Z,1004.88
2019-05-07T11:53:58.330Z,1004.88
2019-05-07T11:54:58.217Z,1004.85
2019-05-07T11:55:58.269Z,1004.86
2019-05-07T11:57:07.136Z,1004.80
2019-05-07T11:59:13.077Z,1004.79
2019-05-07T12:00:02.939Z,1004.83
2019-05-07T12:02:07.512Z,1004.78
2019-05-07T12:03:07.367Z,1004.78
2019-05-07T12:04:16.235Z,1004.75
2019-05-07T12:06:22.784Z,1004.73
2019-05-07T12:07:21.967Z,1004.66
2019-05-07T12:09:25.397Z,1004.72
2019-05-07T12:10:25.153Z,1004.75
2019-05-07T12:12:22.147Z,1004.71
2019-05-07T12:13:21.768Z,1004.68
2019-05-07T12:14:30.504Z,1004.71
2019-05-07T12:15:21.727Z,1004.71
2019-05-07T12:16:22.343Z,1004.72
2019-05-07T12:17:22.361Z,1004.70
2019-05-07T12:18:22.533Z,1004.76
2019-05-07T12:19:22.548Z,1004.71
2019-05-07T12:20:21.826Z,1004.68
2019-05-07T12:21:24.044Z,1004.65
2019-05-07T12:22:20.639Z,1004.66
2019-05-07T12:23:22.456Z,1004.70
2019-05-07T12:24:22.329Z,1004.71
2019-05-07T12:25:20.621Z,1004.72
2019-05-07T12:26:22.253Z,1004.71
2019-05-07T12:27:20.571Z,1004.69
2019-05-07T12:28:22.541Z,1004.68
2019-05-07T12:29:22.076Z,1004.64
2019-05-07T12:30:22.201Z,1004.64
2019-05-07T12:31:22.381Z,1004.61
2019-05-07T12:32:22.092Z,1004.58
2019-05-07T12:33:20.597Z,1004.56
2019-05-07T12:34:22.788Z,1004.58
2019-05-07T12:35:21.970Z,1004.52
2019-05-07T12:36:22.562Z,1004.57
2019-05-07T12:37:22.434Z,1004.52
2019-05-07T12:38:21.954Z,1004.53
2019-05-07T12:39:21.943Z,1004.56
2019-05-07T12:40:22.362Z,1004.52
2019-05-07T12:41:22.081Z,1004.51
2019-05-07T12:42:22.320Z,1004.53
2019-05-07T12:43:20.530Z,1004.50
2019-05-07T12:44:22.174Z,1004.51
2019-05-07T12:45:22.711Z,1004.48
2019-05-07T12:46:22.254Z,1004.47
2019-05-07T12:47:22.349Z,1004.47
2019-05-07T12:48:21.745Z,1004.48
2019-05-07T12:49:22.111Z,1004.47
2019-05-07T12:50:21.955Z,1004.47
2019-05-07T12:51:31.620Z,1004.47
2019-05-07T12:52:22.627Z,1004.45
2019-05-07T12:53:22.397Z,1004.39
2019-05-07T12:54:22.541Z,1004.37
2019-05-07T12:55:20.580Z,1004.39
2019-05-07T12:56:20.537Z,1004.41
2019-05-07T12:57:21.940Z,1004.36
2019-05-07T12:58:21.837Z,1004.37
2019-05-07T12:59:21.917Z,1004.38
2019-05-07T13:00:22.812Z,1004.34
2019-05-07T13:01:22.110Z,1004.32
2019-05-07T13:02:34.794Z,1004.30
2019-05-07T13:03:21.823Z,1004.32
2019-05-07T13:04:22.115Z,1004.34
2019-05-07T13:05:20.501Z,1004.29
2019-05-07T13:06:22.070Z,1004.31
2019-05-07T13:07:21.982Z,1004.27
2019-05-07T13:08:22.834Z,1004.22
2019-05-07T13:09:21.933Z,1004.24
2019-05-07T13:10:21.904Z,1004.19
2019-05-07T13:11:22.178Z,1004.21
2019-05-07T13:12:21.721Z,1004.17
2019-05-07T13:13:20.483Z,1004.19
2019-05-07T13:14:21.800Z,1004.20
2019-05-07T13:15:26.817Z,1004.17
2019-05-07T13:16:22.063Z,1004.19
2019-05-07T13:17:22.358Z,1004.15
2019-05-07T13:18:22.507Z,1004.13
2019-05-07T13:19:22.416Z,1004.15
2019-05-07T13:20:22.521Z,1004.13
2019-05-07T13:21:22.458Z,1004.10
2019-05-07T13:22:21.950Z,1004.07
2019-05-07T13:23:22.343Z,1004.06
2019-05-07T13:24:22.630Z,1004.04
2019-05-07T13:25:21.595Z,1004.09
2019-05-07T13:26:24.385Z,1004.11
2019-05-07T13:27:20.544Z,1004.08
2019-05-07T13:28:20.501Z,1004.07
2019-05-07T13:31:02.349Z,1004.06
2019-05-07T13:32:02.938Z,1004.06
2019-05-07T13:35:34.269Z,1003.99
2019-05-07T13:36:26.828Z,1003.97
2019-05-07T13:37:26.902Z,1003.95